Latest Weather Observations for Maria Island

IDT60901

Issued at 8:15 pm EST Sunday 31 August 2014 (issued every 10 minutes, with the page automatically refreshed every 10 minutes)

About weather observations | Map of Hobart area stations | Latest observations for Hobart area | Other Formats
Station Details ID: 092124 Name: MARIA ISLAND (POINT LESUEUR) Lat: -42.66 Lon: 148.02 Height: 28.0 m
Data from the previous 72 hours. | See also: Recent months at Maria Island
Date/Time
EST
Tmp

°C
App
Tmp
°C
Dew
Point
°C
Rel
Hum
%
Delta-T

°C
Wind Press
QNH
hPa
Press
MSL
hPa
Rain
since
9 am
mm
Dir
 
Spd
km/h
Gust
km/h
Spd
kts
Gust
kts
31/08:00pm 14.2 7.9 9.8 75 2.3 N 33 37 18 20 1010.5 1010.5 0.0
31/07:30pm 14.4 8.6 9.4 72 2.6 N 30 33 16 18 1010.7 1010.7 0.0
31/07:00pm 14.3 9.8 9.9 75 2.3 N 24 28 13 15 1010.9 1010.9 0.0
31/06:30pm 14.0 10.0 10.4 79 1.9 NNW 22 24 12 13 1011.0 1011.0 0.0
31/06:00pm 14.7 10.5 9.7 72 2.6 N 22 26 12 14 1011.0 1011.0 0.0
31/05:30pm 14.7 10.0 10.5 76 2.2 N 26 30 14 16 1011.0 1011.0 0.0
31/05:00pm 15.4 9.7 9.7 69 3.0 N 30 35 16 19 1010.7 1010.7 0.0
31/04:30pm 15.5 10.0 10.5 72 2.6 N 30 32 16 17 1010.8 1010.8 0.0
31/04:00pm 15.0 10.8 11.2 78 2.0 N 24 28 13 15 1011.3 1011.3 0.0
31/03:30pm 15.9 12.5 11.1 73 2.6 N 20 24 11 13 1011.4 1011.4 0.0
31/03:00pm 15.6 11.8 11.2 75 2.4 N 22 24 12 13 1011.7 1011.7 0.0
31/02:30pm 16.7 12.4 10.8 68 3.2 N 24 28 13 15 1011.9 1011.9 0.0
31/02:00pm 16.3 12.0 10.8 70 2.9 N 24 26 13 14 1012.2 1012.2 0.0
31/01:30pm 15.7 11.3 10.5 71 2.7 N 24 26 13 14 1012.4 1012.4 0.0
31/01:00pm 16.6 11.8 10.2 66 3.4 N 26 28 14 15 1012.6 1012.6 0.0
31/12:30pm 15.5 11.2 10.7 73 2.5 N 24 28 13 15 1013.3 1013.3 0.0
31/12:00pm 15.4 11.3 10.0 70 2.8 N 22 26 12 14 1014.0 1014.0 0.0
31/11:30am 15.1 10.2 10.1 72 2.6 N 26 30 14 16 1014.4 1014.4 0.0
31/11:00am 14.8 10.3 10.2 74 2.4 N 24 30 13 16 1014.8 1014.8 0.0
31/10:30am 14.1 10.7 9.1 72 2.5 N 17 20 9 11 1015.4 1015.4 0.0
31/10:00am 13.0 9.8 8.3 73 2.3 NNW 15 19 8 10 1016.0 1016.0 0.0
31/09:30am 12.8 8.7 7.9 72 2.4 NNW 19 26 10 14 1016.3 1016.3 0.0
31/09:00am 12.6 6.3 8.9 78 1.9 N 32 37 17 20 1016.2 1016.2 0.0
31/08:30am 12.0 5.3 7.5 74 2.2 N 32 39 17 21 1016.4 1016.4 0.0
31/08:00am 11.8 5.0 7.5 75 2.1 N 33 35 18 19 1016.6 1016.6 0.0
31/07:30am 11.8 4.5 7.3 74 2.2 N 35 41 19 22 1016.4 1016.4 0.0
31/07:00am 11.5 4.6 7.4 76 2.0 N 33 41 18 22 1016.6 1016.6 0.0
31/06:30am 11.2 3.2 7.5 78 1.8 N 39 46 21 25 1016.4 1016.4 0.0
31/06:00am 11.0 3.4 7.5 79 1.7 N 37 43 20 23 1016.6 1016.6 0.0
31/05:30am 11.0 3.3 6.9 76 1.9 N 37 44 20 24 1016.8 1016.8 0.0
31/05:00am 11.2 3.5 6.9 75 2.0 N 37 43 20 23 1016.8 1016.8 0.0
31/04:30am 11.1 2.9 6.6 74 2.1 N 39 44 21 24 1017.1 1017.1 0.0
31/04:00am 11.2 3.8 6.7 74 2.1 N 35 43 19 23 1017.1 1017.1 0.0
31/03:30am 11.1 3.8 7.4 78 1.8 N 35 43 19 23 1017.6 1017.6 0.0
31/03:00am 10.8 4.0 7.7 81 1.5 N 33 39 18 21 1018.2 1018.2 0.0
31/02:30am 11.0 3.4 7.7 80 1.6 N 37 43 20 23 1018.4 1018.4 0.0
31/02:00am 11.1 4.4 8.1 82 1.5 N 33 39 18 21 1018.8 1018.8 0.0
31/01:30am 10.9 5.8 7.8 81 1.5 NNE 24 32 13 17 1019.4 1019.4 0.0
31/01:00am 10.8 6.2 8.2 84 1.3 N 22 28 12 15 1020.0 1020.0 0.0
31/12:30am 11.4 5.7 8.3 81 1.5 N 28 35 15 19 1020.2 1020.2 0.0
31/12:00am 11.1 5.7 7.8 80 1.6 N 26 30 14 16 1020.7 1020.7 0.0
 
Date/Time
EST
Tmp

°C
App
Tmp
°C
Dew
Point
°C
Rel
Hum
%
Delta-T

°C
Wind Press
QNH
hPa
Press
MSL
hPa
Rain
since
9 am
mm
Dir
 
Spd
km/h
Gust
km/h
Spd
kts
Gust
kts
30/11:30pm 11.3 5.6 8.2 81 1.5 N 28 30 15 16 1020.8 1020.8 0.0
30/11:00pm 11.3 6.1 8.7 84 1.3 N 26 30 14 16 1021.4 1021.4 0.0
30/10:30pm 11.3 6.5 8.9 85 1.2 NNE 24 28 13 15 1021.9 1021.9 0.0
30/10:00pm 11.6 5.6 8.6 82 1.5 N 30 37 16 20 1022.3 1022.3 0.0
30/09:30pm 12.0 5.5 9.0 82 1.5 N 33 41 18 22 1022.4 1022.5 0.0
30/09:00pm 12.1 5.6 8.9 81 1.6 N 33 41 18 22 1022.5 1022.6 0.0
30/08:30pm 12.2 5.9 8.9 80 1.7 N 32 37 17 20 1022.6 1022.7 0.0
30/08:00pm 12.2 5.8 8.5 78 1.8 N 32 41 17 22 1022.6 1022.7 0.0
30/07:30pm 12.2 5.4 7.9 75 2.1 NNE 33 41 18 22 1022.5 1022.6 0.0
30/07:00pm 12.2 5.6 7.9 75 2.1 NNE 32 37 17 20 1022.8 1022.9 0.0
30/06:30pm 12.3 5.8 8.0 75 2.1 N 32 39 17 21 1023.0 1023.1 0.0
30/06:00pm 12.3 7.3 8.0 75 2.1 NNE 24 30 13 16 1023.5 1023.6 0.0
30/05:30pm 12.4 7.6 8.9 79 1.8 N 24 30 13 16 1023.6 1023.7 0.0
30/05:00pm 12.6 7.8 8.7 77 1.9 N 24 30 13 16 1023.7 1023.8 0.0
30/04:30pm 12.8 7.4 8.1 73 2.3 N 26 32 14 17 1023.6 1023.7 0.0
30/04:00pm 13.3 7.2 8.4 72 2.4 N 30 35 16 19 1023.6 1023.7 0.0
30/03:30pm 13.7 8.0 8.3 70 2.7 NNE 28 35 15 19 1023.9 1024.0 0.0
30/03:00pm 13.8 7.8 8.6 71 2.6 NNE 30 33 16 18 1024.2 1024.3 0.0
30/02:30pm 14.0 7.4 7.8 66 3.1 NNE 32 37 17 20 1024.3 1024.4 0.0
30/02:00pm 14.5 8.6 8.9 69 2.8 NNE 30 35 16 19 1024.4 1024.5 0.0
30/01:30pm 14.9 8.9 8.8 67 3.1 NNE 30 39 16 21 1024.7 1024.8 0.0
30/01:00pm 14.9 9.3 8.6 66 3.2 NE 28 33 15 18 1025.2 1025.3 0.0
30/12:30pm 15.2 10.6 9.6 69 2.9 NNE 24 33 13 18 1025.6 1025.7 0.0
30/12:00pm 14.8 8.8 8.7 67 3.1 NNE 30 35 16 19 1026.0 1026.1 0.0
30/11:30am 14.8 9.0 9.6 71 2.7 NNE 30 39 16 21 1026.6 1026.7 0.0
30/11:00am 13.9 7.7 9.5 75 2.2 NNE 32 41 17 22 1026.9 1027.0 0.0
30/10:30am 13.7 7.2 10.3 80 1.8 NNE 35 43 19 23 1027.4 1027.5 0.0
30/10:00am 12.8 7.1 9.8 82 1.5 N 30 35 16 19 1027.9 1028.0 0.0
30/09:30am 12.6 7.7 10.1 85 1.3 N 26 30 14 16 1028.2 1028.3 0.0
30/09:00am 12.3 7.8 9.9 85 1.2 N 24 30 13 16 1028.4 1028.5 0.2
30/08:30am 11.3 8.8 9.7 90 0.8 N 13 15 7 8 1028.9 1029.0 0.2
30/08:00am 10.6 8.7 9.2 91 0.7 N 9 13 5 7 1029.1 1029.2 0.2
30/07:30am 9.8 7.4 8.7 93 0.5 NNW 11 13 6 7 1029.0 1029.1 0.2
30/07:00am 9.6 6.8 8.7 94 0.4 N 13 15 7 8 1028.8 1028.9 0.2
30/06:30am 9.9 7.2 9.0 94 0.4 N 13 17 7 9 1028.6 1028.7 0.2
30/06:00am 9.7 7.0 8.8 94 0.4 NNW 13 15 7 8 1028.7 1028.8 0.2
30/05:30am 9.7 6.6 8.9 95 0.4 N 15 19 8 10 1028.6 1028.7 0.0
30/05:00am 9.5 6.7 8.7 95 0.4 NNW 13 15 7 8 1028.5 1028.6 0.0
30/04:30am 9.7 6.6 8.9 95 0.4 NNW 15 19 8 10 1028.6 1028.7 0.0
30/04:00am 9.6 6.9 8.8 95 0.4 N 13 17 7 9 1028.6 1028.7 0.0
30/03:30am 9.8 7.2 9.2 96 0.3 NNW 13 15 7 8 1028.6 1028.7 0.0
30/03:00am 9.7 7.4 8.9 95 0.4 NNW 11 13 6 7 1028.8 1028.9 0.0
30/02:30am 9.5 7.2 8.9 96 0.3 NNW 11 15 6 8 1029.0 1029.1 0.0
30/02:00am 10.0 7.8 9.2 95 0.4 NNW 11 17 6 9 1029.1 1029.2 0.0
30/01:30am 9.7 7.8 8.9 95 0.4 NW 9 11 5 6 1029.3 1029.4 0.0
30/01:00am 9.7 8.1 8.9 95 0.4 WNW 7 9 4 5 1029.5 1029.6 0.0
30/12:30am 9.8 8.2 8.9 94 0.4 NW 7 9 4 5 1029.4 1029.5 0.0
30/12:00am 9.8 8.2 8.9 94 0.4 NW 7 7 4 4 1029.4 1029.5 0.0
 
Date/Time
EST
Tmp

°C
App
Tmp
°C
Dew
Point
°C
Rel
Hum
%
Delta-T

°C
Wind Press
QNH
hPa
Press
MSL
hPa
Rain
since
9 am
mm
Dir
 
Spd
km/h
Gust
km/h
Spd
kts
Gust
kts
29/11:30pm 10.3 9.4 9.4 94 0.4 NNW 4 6 2 3 1029.5 1029.6 0.0
29/11:00pm 10.6 9.8 9.5 93 0.5 NW 4 4 2 2 1029.6 1029.7 0.0
29/10:30pm 10.4 9.9 9.3 93 0.5 WNW 2 6 1 3 1029.8 1029.9 0.0
29/10:00pm 10.4 9.9 9.3 93 0.5 WNW 2 4 1 2 1029.7 1029.8 0.0
29/09:30pm 9.6 7.9 8.4 92 0.6 W 7 9 4 5 1029.8 1029.9 0.0
29/09:00pm 10.5 9.5 8.9 90 0.8 WNW 4 6 2 3 1029.8 1029.9 0.0
29/08:30pm 11.0 9.9 8.6 85 1.2 NW 4 4 2 2 1029.8 1029.9 0.0
29/08:00pm 11.4 11.2 9.0 85 1.2 CALM 0 0 0 0 1029.8 1029.9 0.0
29/07:30pm 11.0 9.6 8.8 86 1.1 WNW 6 7 3 4 1029.5 1029.6 0.0
29/07:00pm 11.3 9.7 8.9 85 1.2 NW 7 7 4 4 1029.5 1029.6 0.0
29/06:30pm 11.6 10.0 8.6 82 1.5 W 7 9 4 5 1029.5 1029.6 0.0
29/06:00pm 12.5 12.0 8.0 74 2.2 CALM 0 0 0 0 1029.3 1029.4 0.0
29/05:30pm 12.7 11.8 7.6 71 2.5 SSE 2 2 1 1 1029.2 1029.3 0.0
29/05:00pm 13.3 12.0 7.5 68 2.8 SE 4 7 2 4 1029.0 1029.1 0.0
29/04:30pm 13.6 11.2 7.2 65 3.1 ESE 9 11 5 6 1028.9 1029.0 0.0
29/04:00pm 13.9 10.8 7.4 65 3.2 ESE 13 15 7 8 1028.7 1028.8 0.0
29/03:30pm 13.9 10.6 7.9 67 3.0 ESE 15 19 8 10 1028.4 1028.5 0.0
29/03:00pm 14.2 11.0 6.8 61 3.6 ESE 13 19 7 10 1028.3 1028.4 0.0
29/02:30pm 13.9 10.0 7.0 63 3.4 E 17 19 9 10 1028.3 1028.4 0.0
29/02:00pm 14.5 10.8 7.8 64 3.3 E 17 20 9 11 1028.4 1028.5 0.0
29/01:30pm 14.4 11.4 7.7 64 3.3 ESE 13 17 7 9 1028.6 1028.7 0.0
29/01:00pm 14.3 12.2 6.6 60 3.7 ESE 7 11 4 6 1028.8 1028.9 0.0
29/12:30pm 13.9 12.1 7.9 67 3.0 SE 7 11 4 6 1029.0 1029.1 0.0
29/12:00pm 13.6 11.7 7.6 67 2.9 WSW 7 9 4 5 1029.2 1029.3 0.0
29/11:30am 14.9 13.3 6.2 56 4.2 N 4 6 2 3 1029.3 1029.4 0.0
29/11:00am 13.3 11.6 5.7 60 3.6 N 4 7 2 4 1029.6 1029.7 0.0
29/10:30am 13.2 11.4 7.2 67 2.9 N 6 9 3 5 1029.7 1029.8 0.0
29/10:00am 12.6 10.2 6.9 68 2.7 N 9 9 5 5 1029.6 1029.7 0.0
29/09:30am 12.1 9.9 8.0 76 2.0 N 9 13 5 7 1029.6 1029.7 0.0
29/09:00am 12.0 10.0 7.3 73 2.3 N 7 9 4 5 1029.7 1029.8 0.0
29/08:30am 11.2 8.6 5.9 70 2.5 NW 9 11 5 6 1029.6 1029.7 0.0
29/08:00am 10.7 8.8 6.5 75 2.0 NW 6 9 3 5 1029.4 1029.5 0.0
29/07:30am 9.9 8.0 6.6 80 1.5 NW 6 7 3 4 1029.0 1029.1 0.0
29/07:00am 10.6 7.7 6.7 77 1.8 N 11 15 6 8 1028.6 1028.7 0.0
29/06:30am 9.9 6.9 5.9 76 1.8 NW 11 15 6 8 1028.4 1028.5 0.0
29/06:00am 9.7 6.4 6.4 80 1.5 WNW 13 17 7 9 1028.3 1028.4 0.0
29/05:30am 9.6 6.7 6.5 81 1.4 NW 11 13 6 7 1027.9 1028.0 0.0
29/05:00am 9.8 7.7 6.5 80 1.5 NW 7 9 4 5 1027.8 1027.9 0.0
29/04:30am 9.9 7.7 6.4 79 1.6 WNW 7 11 4 6 1027.8 1027.9 0.0
29/04:00am 10.2 7.8 6.9 80 1.5 W 9 13 5 7 1027.7 1027.8 0.0
29/03:30am 10.2 7.3 6.7 79 1.6 W 11 13 6 7 1027.8 1027.9 0.0
29/03:00am 10.1 6.8 6.6 79 1.6 WNW 13 15 7 8 1027.7 1027.8 0.0
29/02:30am 10.4 7.1 6.4 76 1.9 W 13 17 7 9 1027.8 1027.9 0.0
29/02:00am 10.5 8.0 6.6 77 1.8 W 9 13 5 7 1027.7 1027.8 0.0
29/01:30am 10.9 8.1 6.8 76 1.9 NNW 11 13 6 7 1027.7 1027.8 0.0
29/01:00am 11.4 9.2 7.9 79 1.7 N 9 13 5 7 1027.7 1027.8 0.0
29/12:30am 11.3 8.9 8.5 83 1.4 N 11 13 6 7 1027.6 1027.7 0.0
29/12:00am 11.9 9.5 8.6 80 1.6 N 11 13 6 7 1027.6 1027.7 0.0
 
Date/Time
EST
Tmp

°C
App
Tmp
°C
Dew
Point
°C
Rel
Hum
%
Delta-T

°C
Wind Press
QNH
hPa
Press
MSL
hPa
Rain
since
9 am
mm
Dir
 
Spd
km/h
Gust
km/h
Spd
kts
Gust
kts
28/11:30pm 11.8 9.5 9.0 83 1.4 N 11 11 6 6 1027.6 1027.7 0.0
28/11:00pm 11.6 9.4 9.2 85 1.2 N 11 13 6 7 1027.5 1027.6 0.0
28/10:30pm 11.5 9.4 9.9 90 0.8 NNW 11 13 6 7 1027.5 1027.6 0.0
28/10:00pm 11.4 9.7 9.8 90 0.8 NNW 9 11 5 6 1027.6 1027.7 0.0
28/09:30pm 11.3 9.5 9.6 89 0.9 NNW 9 13 5 7 1027.6 1027.7 0.0
28/09:00pm 12.4 9.4 10.5 88 1.0 N 17 20 9 11 1027.4 1027.5 0.0
28/08:30pm 12.3 9.5 9.9 85 1.2 N 15 17 8 9 1027.5 1027.6 0.0

Latest Capital City Observations: Canberra | Sydney | Melbourne | Brisbane | Adelaide | Perth | Hobart | Darwin

Other Formats:

Comma delimited format used in spreadsheet applications
http://www.bom.gov.au/fwo/IDT60901/IDT60901.95988.axf

JavaScript Object Notation format (JSON) in row-major order
http://www.bom.gov.au/fwo/IDT60901/IDT60901.95988.json